Time;durP1;ratioP1;P1;durP2;ratioP2;P2;SDS_P1;SDS_P2;PMS_P1;PMS_P2;Temp;Humidity;BMP_temperature;BMP_pressure;BME280_temperature;BME280_humidity;BME280_pressure;Samples;Min_cycle;Max_cycle;Signal;HPM_P1;HPM_P2
2023/03/28 00:00:58;;;;;;;5.25;3.65;;;;;;;8.79;55.07;64669.47;5108943;28;20039;-75
2023/03/28 00:03:26;;;;;;;10.50;4.45;;;;;;;8.75;55.05;64664.97;5091925;28;20094;-76
2023/03/28 00:05:55;;;;;;;5.90;3.58;;;;;;;8.67;55.32;64656.00;5108928;28;20123;-77
2023/03/28 00:08:22;;;;;;;8.32;3.67;;;;;;;8.63;55.37;64651.50;5091770;28;20039;-77
2023/03/28 00:10:48;;;;;;;7.82;3.75;;;;;;;8.61;55.30;64649.25;5093018;28;20047;-77
2023/03/28 00:13:14;;;;;;;4.93;3.30;;;;;;;8.61;55.50;64649.25;5108826;28;20040;-76
2023/03/28 00:15:41;;;;;;;8.73;3.75;;;;;;;8.65;55.18;64654.31;5075130;28;20040;-76
2023/03/28 00:18:10;;;;;;;11.43;3.50;;;;;;;8.66;54.93;64654.88;5091766;28;20498;-76
2023/03/28 00:20:38;;;;;;;4.82;3.50;;;;;;;8.59;55.13;64647.03;5091608;28;20047;-77
2023/03/28 00:23:04;;;;;;;7.20;3.33;;;;;;;8.60;55.43;64648.13;5074923;28;20125;-76
2023/03/28 00:25:35;;;;;;;9.07;3.30;;;;;;;8.57;55.26;64645.31;5074811;28;20081;-76
2023/03/28 00:28:02;;;;;;;10.77;4.15;;;;;;;8.55;55.03;64642.53;5092451;28;20453;-76
2023/03/28 00:30:28;;;;;;;5.07;3.15;;;;;;;8.52;55.30;64640.28;5091597;28;20040;-76
2023/03/28 00:32:54;;;;;;;6.95;3.47;;;;;;;8.56;55.18;64643.66;5091750;28;20039;-76
2023/03/28 00:35:20;;;;;;;10.23;4.00;;;;;;;8.56;55.16;64644.19;5091371;28;20047;-75
2023/03/28 00:37:49;;;;;;;7.85;3.15;;;;;;;8.57;55.08;64644.75;5074601;28;20048;-76
2023/03/28 00:40:15;;;;;;;15.27;3.22;;;;;;;8.55;55.03;64643.09;5092815;28;20059;-77
2023/03/28 00:42:41;;;;;;;9.75;4.40;;;;;;;8.57;55.07;64645.31;5092596;28;20483;-76
2023/03/28 00:45:11;;;;;;;7.13;2.80;;;;;;;8.54;55.19;64641.97;5092534;28;20044;-76
2023/03/28 00:47:44;;;;;;;4.75;2.90;;;;;;;8.55;54.87;64643.09;5091489;28;20040;-75
2023/03/28 00:50:26;;;;;;;4.53;3.22;;;;;;;8.40;55.24;64626.81;5091210;28;20138;-77
2023/03/28 00:52:54;;;;;;;5.03;3.35;;;;;;;8.43;55.15;64630.19;5108821;28;20407;-77
2023/03/28 00:55:32;;;;;;;7.15;3.47;;;;;;;8.37;55.13;64623.44;5092774;28;20044;-76
2023/03/28 00:57:59;;;;;;;8.30;3.35;;;;;;;8.28;55.03;64613.31;5074733;28;20036;-77
2023/03/28 01:00:27;;;;;;;11.02;4.03;;;;;;;8.31;55.11;64616.66;5108323;28;20044;-77
2023/03/28 01:03:00;;;;;;;6.75;3.15;;;;;;;8.28;55.19;64613.31;5091390;28;20434;-76
2023/03/28 01:05:30;;;;;;;6.07;3.55;;;;;;;8.41;54.89;64627.34;5074396;28;20513;-77
2023/03/28 01:08:01;;;;;;;8.80;4.53;;;;;;;8.38;55.00;64623.97;5093750;28;20085;-77
2023/03/28 01:10:27;;;;;;;4.75;3.78;;;;;;;8.49;54.81;64636.34;5095116;28;20052;-79
2023/03/28 01:12:55;;;;;;;7.68;3.88;;;;;;;8.55;54.57;64642.53;5096048;28;20039;-79
2023/03/28 01:15:20;;;;;;;5.28;3.70;;;;;;;8.56;54.27;64644.19;5077685;28;20491;-77
2023/03/28 01:18:01;;;;;;;12.38;3.83;;;;;;;8.55;54.30;64642.53;5078316;28;20085;-76
2023/03/28 01:20:51;;;;;;;6.18;3.35;;;;;;;8.56;54.07;64643.66;5077938;28;20491;-77
2023/03/28 01:23:39;;;;;;;7.03;4.30;;;;;;;8.55;54.25;64642.53;5061881;28;20055;-75
2023/03/28 01:26:07;;;;;;;9.20;4.03;;;;;;;8.52;54.19;64640.28;5095035;28;20044;-76
2023/03/28 01:28:55;;;;;;;7.68;3.95;;;;;;;8.50;53.83;64638.03;5093776;28;20055;-76
2023/03/28 01:31:58;;;;;;;5.97;3.90;;;;;;;8.46;53.97;64633.53;5111553;28;20100;-76
2023/03/28 01:35:17;;;;;;;7.15;4.22;;;;;;;8.38;54.24;64624.53;5096212;28;20044;-75
2023/03/28 01:38:00;;;;;;;8.02;3.55;;;;;;;8.37;54.20;64622.84;5094355;28;20058;-76
2023/03/28 01:40:29;;;;;;;5.30;3.63;;;;;;;8.30;54.35;64615.53;5060751;28;20040;-76
2023/03/28 01:43:04;;;;;;;7.97;3.55;;;;;;;8.24;54.71;64609.38;5078307;28;20047;-76
2023/03/28 01:45:44;;;;;;;5.90;3.78;;;;;;;8.20;54.52;64604.34;5094102;28;20131;-76
2023/03/28 01:48:20;;;;;;;7.35;3.75;;;;;;;8.19;54.35;64603.19;5094130;28;20523;-76
2023/03/28 01:50:55;;;;;;;6.68;3.72;;;;;;;8.08;54.42;64590.84;5093634;28;20537;-76
2023/03/28 01:53:27;;;;;;;7.78;3.92;;;;;;;8.02;54.80;64585.25;5111434;28;20097;-76
2023/03/28 01:56:12;;;;;;;7.38;3.63;;;;;;;8.01;54.67;64584.13;5111164;28;20117;-76
2023/03/28 01:58:57;;;;;;;9.10;3.80;;;;;;;7.88;54.87;64568.97;5094129;28;20036;-77
2023/03/28 02:01:48;;;;;;;8.52;4.03;;;;;;;7.96;55.41;64578.50;5076916;28;20032;-78
2023/03/28 02:04:19;;;;;;;7.22;4.18;;;;;;;7.95;55.11;64577.38;5095565;28;20075;-74
2023/03/28 02:06:56;;;;;;;12.25;4.45;;;;;;;7.98;55.48;64580.75;5093850;28;20048;-75
2023/03/28 02:09:26;;;;;;;8.02;4.38;;;;;;;8.01;55.72;64583.53;5077497;28;20094;-76
2023/03/28 02:12:33;;;;;;;11.30;3.80;;;;;;;7.98;55.74;64580.75;5080628;28;20076;-76
2023/03/28 02:15:12;;;;;;;7.85;3.70;;;;;;;7.99;55.67;64581.88;5060913;28;20036;-77
2023/03/28 02:18:12;;;;;;;7.93;3.05;;;;;;;8.04;55.37;64586.91;5089440;28;20155;-78
2023/03/28 02:20:55;;;;;;;7.93;2.97;;;;;;;8.04;55.27;64587.47;5061944;28;20040;-79
2023/03/28 02:23:49;;;;;;;11.45;3.60;;;;;;;8.02;55.02;64584.69;5076521;28;20047;-77
2023/03/28 02:26:42;;;;;;;4.93;3.22;;;;;;;8.04;54.75;64587.47;5091966;28;20101;-75
2023/03/28 02:29:17;;;;;;;6.65;3.08;;;;;;;8.10;54.78;64593.09;5092988;28;20056;-77
2023/03/28 02:31:49;;;;;;;6.50;3.15;;;;;;;8.21;54.51;64605.44;5077016;28;20078;-76
2023/03/28 02:34:15;;;;;;;3.58;2.80;;;;;;;8.27;54.17;64612.16;5076029;28;20040;-76
2023/03/28 02:36:56;;;;;;;10.93;2.80;;;;;;;8.45;53.91;64631.84;5109603;28;20047;-76
2023/03/28 02:39:43;;;;;;;12.65;3.13;;;;;;;8.49;53.71;64636.34;5076208;28;20047;-79
2023/03/28 02:42:27;;;;;;;7.38;2.90;;;;;;;8.60;53.02;64648.69;5059470;28;20138;-77
2023/03/28 02:45:22;;;;;;;11.98;3.20;;;;;;;8.62;52.76;64650.94;5092820;28;20407;-77
2023/03/28 02:48:10;;;;;;;11.93;2.83;;;;;;;8.64;53.08;64652.63;5087556;28;20052;-78
2023/03/28 02:51:16;;;;;;;5.50;2.60;;;;;;;8.64;52.64;64653.19;5092979;28;20048;-77
2023/03/28 02:53:51;;;;;;;7.13;2.75;;;;;;;8.72;52.62;64661.59;5072685;28;20078;-77
2023/03/28 02:56:25;;;;;;;8.75;2.90;;;;;;;8.78;52.77;64668.34;5092884;28;20149;-79
2023/03/28 02:59:32;;;;;;;4.18;2.80;;;;;;;8.92;52.96;64684.09;5093194;28;20062;-79
2023/03/28 03:02:00;;;;;;;5.20;2.78;;;;;;;8.99;52.51;64691.97;5070259;28;20059;-80
2023/03/28 03:04:26;;;;;;;7.85;2.70;;;;;;;9.03;52.00;64695.31;5093695;28;20085;-81
2023/03/28 03:06:52;;;;;;;5.40;3.03;;;;;;;9.09;52.20;64702.06;5093279;28;20139;-77
2023/03/28 03:09:18;;;;;;;8.40;3.00;;;;;;;9.15;52.04;64709.38;5092818;28;20036;-83
2023/03/28 03:11:44;;;;;;;3.28;2.95;;;;;;;9.16;52.02;64709.94;5076423;28;20032;-80
2023/03/28 03:14:10;;;;;;;5.97;3.05;;;;;;;9.13;52.14;64706.56;5076821;28;20071;-80
2023/03/28 03:16:37;;;;;;;4.15;2.75;;;;;;;9.10;51.52;64703.75;5110099;28;20036;-76
2023/03/28 03:19:06;;;;;;;6.35;2.97;;;;;;;9.04;51.67;64697.00;5092220;28;20043;-77
2023/03/28 03:21:32;;;;;;;4.93;2.40;;;;;;;9.00;51.69;64693.06;5092153;28;20047;-77
2023/03/28 03:23:58;;;;;;;5.68;2.50;;;;;;;8.99;51.56;64691.97;5092375;28;20036;-77
2023/03/28 03:26:24;;;;;;;6.60;2.50;;;;;;;9.06;51.05;64699.25;5058722;28;20044;-77
2023/03/28 03:28:54;;;;;;;4.50;2.50;;;;;;;9.18;51.03;64712.19;5091818;28;20105;-79
2023/03/28 03:31:25;;;;;;;6.03;2.78;;;;;;;9.26;50.52;64720.63;5091389;28;20043;-78
2023/03/28 03:34:16;;;;;;;10.45;2.78;;;;;;;9.30;50.71;64725.09;5067487;28;20051;-78
2023/03/28 03:36:48;;;;;;;3.72;2.53;;;;;;;9.44;50.24;64741.41;5071788;28;20094;-77
2023/03/28 03:39:16;;;;;;;3.60;2.63;;;;;;;9.42;50.33;64739.16;5071709;28;20037;-79
2023/03/28 03:41:42;;;;;;;4.80;2.53;;;;;;;9.58;49.99;64756.00;5071469;28;20147;-80
2023/03/28 03:44:08;;;;;;;5.88;2.55;;;;;;;9.52;50.63;64749.28;5073276;28;20040;-78
2023/03/28 03:46:35;;;;;;;5.28;2.65;;;;;;;9.77;50.00;64777.38;5071676;28;20140;-82
2023/03/28 03:49:01;;;;;;;5.32;2.70;;;;;;;9.91;49.92;64792.56;5072006;28;20045;-91
2023/03/28 03:51:27;;;;;;;7.05;2.67;;;;;;;10.03;49.52;64805.50;5073099;28;20462;-83
2023/03/28 03:53:56;;;;;;;10.75;3.22;;;;;;;10.18;49.04;64822.38;5071842;28;20063;-79
2023/03/28 03:56:30;;;;;;;12.02;2.80;;;;;;;10.16;49.08;64820.13;5054880;28;20060;-81
2023/03/28 03:58:58;;;;;;;4.78;2.88;;;;;;;10.17;49.02;64821.25;5071274;28;20040;-80
2023/03/28 04:01:29;;;;;;;9.27;2.80;;;;;;;10.26;49.39;64831.38;5057265;28;20051;-78
2023/03/28 04:03:57;;;;;;;13.25;3.13;;;;;;;10.35;48.65;64841.53;5073814;28;20032;-78
2023/03/28 04:06:33;;;;;;;8.00;3.28;;;;;;;10.38;48.86;64844.91;5074645;28;20387;-80
2023/03/28 04:09:05;;;;;;;10.55;3.60;;;;;;;10.43;49.06;64850.50;5091378;28;20052;-81
2023/03/28 04:11:47;;;;;;;7.60;3.38;;;;;;;10.59;48.19;64867.41;5076704;28;20410;-79
2023/03/28 04:14:14;;;;;;;10.43;4.00;;;;;;;10.63;48.35;64871.91;5084286;28;20068;-77
2023/03/28 04:16:40;;;;;;;11.52;4.28;;;;;;;10.70;47.56;64879.78;5065889;28;20172;-76
2023/03/28 04:19:06;;;;;;;10.38;4.10;;;;;;;10.70;47.77;64879.78;5070755;28;20131;-76
2023/03/28 04:21:34;;;;;;;9.73;3.20;;;;;;;10.87;47.63;64898.34;5054247;28;20051;-76
2023/03/28 04:24:03;;;;;;;7.53;2.92;;;;;;;11.01;47.45;64914.09;5071668;28;20113;-77
2023/03/28 04:26:36;;;;;;;6.32;3.00;;;;;;;11.21;47.24;64936.06;5038802;28;20043;-77
2023/03/28 04:29:09;;;;;;;9.93;3.10;;;;;;;11.47;46.78;64964.22;5054452;28;20052;-76
2023/03/28 04:31:38;;;;;;;11.30;3.20;;;;;;;11.75;46.76;64995.19;5071749;28;20075;-77
2023/03/28 04:34:13;;;;;;;8.15;3.30;;;;;;;12.06;46.08;65030.13;5055605;28;20044;-77
2023/03/28 04:37:00;;;;;;;9.05;3.15;;;;;;;12.39;45.78;65066.78;5070805;28;20449;-79
2023/03/28 04:39:32;;;;;;;9.10;2.90;;;;;;;12.53;44.97;65082.00;5087600;28;20117;-79
2023/03/28 04:42:19;;;;;;;8.25;3.80;;;;;;;12.45;44.92;65073.00;5062107;28;20056;-79
2023/03/28 04:45:20;;;;;;;13.27;3.70;;;;;;;12.56;44.86;65084.81;5060542;28;20046;-79
2023/03/28 04:47:47;;;;;;;24.95;4.43;;;;;;;12.58;44.75;65087.06;5074676;28;20131;-77
2023/03/28 04:50:18;;;;;;;14.50;4.05;;;;;;;12.61;44.80;65091.03;5057473;28;20486;-78
2023/03/28 04:52:44;;;;;;;14.02;4.05;;;;;;;12.62;44.74;65092.13;5074018;28;20072;-82
2023/03/28 04:55:11;;;;;;;10.77;3.88;;;;;;;12.71;44.73;65101.72;5070472;28;20043;-84
2023/03/28 04:57:39;;;;;;;17.50;4.30;;;;;;;12.75;44.56;65106.25;5081886;28;20381;-82
2023/03/28 05:00:15;;;;;;;14.35;4.30;;;;;;;12.83;44.82;65114.72;5069560;28;20044;-79
2023/03/28 05:02:59;;;;;;;11.27;4.32;;;;;;;12.93;44.79;65125.97;5074080;28;20515;-80
2023/03/28 05:05:27;;;;;;;17.70;3.97;;;;;;;13.06;44.06;65140.63;5089723;28;20055;-81
2023/03/28 05:07:54;;;;;;;13.43;4.18;;;;;;;13.41;43.59;65178.44;5094570;28;20051;-80
2023/03/28 05:10:20;;;;;;;24.95;4.35;;;;;;;13.79;43.38;65221.34;5094022;28;20094;-82
2023/03/28 05:12:48;;;;;;;17.13;4.30;;;;;;;13.96;42.40;65239.41;5094815;28;20044;-84
2023/03/28 05:15:18;;;;;;;18.38;4.38;;;;;;;14.15;42.30;65260.84;5077042;28;20414;-82
2023/03/28 05:18:00;;;;;;;10.35;3.78;;;;;;;14.20;41.65;65266.50;5073214;28;20580;-84
2023/03/28 05:20:32;;;;;;;15.55;4.28;;;;;;;14.31;41.76;65278.91;5054889;28;20094;-79
2023/03/28 05:23:00;;;;;;;10.13;4.05;;;;;;;14.33;41.21;65281.19;5036862;28;20041;-87
2023/03/28 05:25:27;;;;;;;19.55;3.95;;;;;;;14.22;41.53;65268.75;5005818;28;20059;-88
2023/03/28 05:27:54;;;;;;;10.75;3.53;;;;;;;13.83;42.51;65225.84;5004387;28;20057;-84
2023/03/28 05:30:23;;;;;;;17.92;3.58;;;;;;;13.91;42.67;65233.75;5021988;28;20063;-82
2023/03/28 05:32:52;;;;;;;14.38;4.15;;;;;;;14.01;42.79;65245.03;5054857;28;20063;-83
2023/03/28 05:35:19;;;;;;;25.02;4.90;;;;;;;14.15;41.99;65260.28;5052533;28;20036;-83
2023/03/28 05:37:45;;;;;;;18.83;4.05;;;;;;;14.18;41.94;65264.25;5071887;28;20045;-82
2023/03/28 05:40:12;;;;;;;13.45;4.22;;;;;;;14.07;42.07;65251.81;5054945;28;20064;-83
2023/03/28 05:42:40;;;;;;;16.27;4.40;;;;;;;14.25;42.25;65272.13;5027601;28;20446;-82
2023/03/28 05:45:13;;;;;;;13.65;4.95;;;;;;;14.38;42.32;65286.25;5039502;28;20055;-85
2023/03/28 05:47:39;;;;;;;16.27;5.00;;;;;;;14.56;41.90;65306.63;5073003;28;20040;-81
2023/03/28 05:50:06;;;;;;;8.88;4.18;;;;;;;14.70;41.62;65321.84;5093433;28;20109;-81
2023/03/28 05:52:32;;;;;;;9.93;4.32;;;;;;;14.86;41.51;65339.38;5094010;28;20054;-80
2023/03/28 05:54:58;;;;;;;16.92;4.82;;;;;;;14.81;40.90;65333.72;5093219;28;20123;-78
2023/03/28 05:57:24;;;;;;;10.15;3.40;;;;;;;14.77;40.87;65329.19;5093296;28;20126;-82
2023/03/28 05:59:51;;;;;;;16.23;3.92;;;;;;;14.77;40.93;65329.75;5075470;28;20513;-81
2023/03/28 06:02:22;;;;;;;25.13;4.17;;;;;;;14.73;40.47;65324.69;5075184;28;20054;-80
2023/03/28 06:04:51;;;;;;;24.02;3.53;;;;;;;14.81;40.48;65334.28;5091684;28;20040;-80
2023/03/28 06:07:18;;;;;;;28.77;3.75;;;;;;;14.86;40.28;65338.81;5091052;28;20036;-78
2023/03/28 06:09:45;;;;;;;11.25;3.28;;;;;;;14.97;40.39;65351.81;5093821;28;20396;-79
2023/03/28 06:12:11;;;;;;;19.13;3.42;;;;;;;15.10;39.57;65365.94;5077030;28;20411;-80
2023/03/28 06:14:42;;;;;;;17.15;3.40;;;;;;;14.91;40.27;65344.47;5073494;28;20041;-79
2023/03/28 06:17:18;;;;;;;19.77;3.25;;;;;;;15.02;39.95;65356.88;5056623;28;20066;-79
2023/03/28 06:19:48;;;;;;;7.15;2.95;;;;;;;15.07;40.08;65362.53;5074161;28;20127;-78
2023/03/28 06:22:14;;;;;;;16.10;3.50;;;;;;;15.01;40.13;65355.75;5056512;28;20466;-78
2023/03/28 06:24:43;;;;;;;19.00;2.78;;;;;;;15.19;39.61;65376.09;5073252;28;20074;-76
2023/03/28 06:27:09;;;;;;;17.42;3.13;;;;;;;14.86;39.59;65338.81;5074296;28;20044;-77
2023/03/28 06:29:37;;;;;;;12.65;3.08;;;;;;;14.60;40.20;65310.56;5072508;28;20480;-78
2023/03/28 06:32:03;;;;;;;14.90;2.45;;;;;;;14.50;40.66;65299.28;5072068;28;20075;-76
2023/03/28 06:34:29;;;;;;;21.45;3.03;;;;;;;14.52;41.02;65301.53;5073266;28;20040;-77
2023/03/28 06:37:00;;;;;;;10.35;2.90;;;;;;;14.07;41.51;65251.81;5090003;28;20055;-76
2023/03/28 06:39:49;;;;;;;20.02;2.85;;;;;;;14.15;41.90;65260.84;5058923;28;20044;-77
2023/03/28 06:42:16;;;;;;;11.88;3.20;;;;;;;14.12;41.43;65257.47;5073438;28;20079;-86
2023/03/28 06:44:52;;;;;;;14.80;3.00;;;;;;;14.08;41.74;65252.94;5055850;28;20047;-77
2023/03/28 06:47:29;;;;;;;17.00;3.28;;;;;;;14.42;41.69;65290.22;5072550;28;20109;-77
2023/03/28 06:49:55;;;;;;;13.05;2.80;;;;;;;14.96;40.97;65350.66;5072082;28;20052;-78
2023/03/28 06:52:24;;;;;;;12.90;3.30;;;;;;;15.27;40.61;65385.16;5055586;28;20056;-77
2023/03/28 06:54:51;;;;;;;18.98;3.47;;;;;;;15.29;40.16;65386.84;5072462;28;20060;-77
2023/03/28 06:57:17;;;;;;;16.25;3.10;;;;;;;15.43;40.08;65402.09;5071672;28;20048;-76
2023/03/28 06:59:45;;;;;;;37.50;3.30;;;;;;;15.22;40.50;65379.47;5071833;28;20041;-77
2023/03/28 07:02:17;;;;;;;16.92;3.00;;;;;;;15.28;40.84;65385.72;5056306;28;20095;-77
2023/03/28 07:04:43;;;;;;;19.63;3.08;;;;;;;15.11;40.08;65367.06;5038487;28;20048;-76
2023/03/28 07:07:09;;;;;;;10.18;3.20;;;;;;;14.84;40.76;65337.13;5071442;28;20045;-77
2023/03/28 07:09:35;;;;;;;20.23;3.65;;;;;;;14.80;40.91;65333.16;5055270;28;20055;-76
2023/03/28 07:12:08;;;;;;;28.70;3.13;;;;;;;15.09;40.54;65364.81;5089371;28;20035;-79
2023/03/28 07:14:34;;;;;;;28.73;3.22;;;;;;;15.42;39.22;65400.97;5075244;28;20406;-77
2023/03/28 07:17:00;;;;;;;14.15;3.60;;;;;;;15.44;38.86;65403.22;5091958;28;20536;-76
2023/03/28 07:19:26;;;;;;;18.35;3.67;;;;;;;15.54;38.69;65415.09;5092290;28;20040;-75
2023/03/28 07:21:52;;;;;;;17.60;3.08;;;;;;;15.04;38.09;65359.13;5092113;28;20048;-77
2023/03/28 07:24:19;;;;;;;17.48;3.20;;;;;;;14.86;39.09;65339.38;5075048;28;20130;-78
2023/03/28 07:27:08;;;;;;;15.55;3.13;;;;;;;14.97;38.83;65351.81;5092454;28;20047;-76
2023/03/28 07:29:34;;;;;;;15.35;3.28;;;;;;;15.06;38.41;65361.97;5091772;28;20055;-76
2023/03/28 07:32:00;;;;;;;29.92;3.78;;;;;;;14.63;39.07;65313.97;5093260;28;20132;-76
2023/03/28 07:34:26;;;;;;;30.58;4.03;;;;;;;14.85;39.32;65338.22;5091441;28;20043;-76
2023/03/28 07:36:52;;;;;;;22.52;4.03;;;;;;;15.01;38.99;65356.31;5091483;28;20097;-77
2023/03/28 07:39:38;;;;;;;23.25;3.65;;;;;;;15.33;38.35;65390.78;5077749;28;20044;-78
2023/03/28 07:42:10;;;;;;;15.68;3.25;;;;;;;15.48;38.26;65407.75;5091961;28;20411;-76
2023/03/28 07:44:36;;;;;;;17.95;3.92;;;;;;;15.72;38.14;65434.34;5093216;28;20503;-75
2023/03/28 07:47:03;;;;;;;31.60;4.97;;;;;;;15.85;38.44;65448.47;5074541;28;20164;-77
2023/03/28 07:49:29;;;;;;;16.05;4.22;;;;;;;15.98;37.96;65463.16;5074894;28;20075;-77
2023/03/28 07:51:55;;;;;;;23.65;3.70;;;;;;;15.82;37.81;65445.66;5074774;28;20044;-80
2023/03/28 07:54:23;;;;;;;14.98;3.70;;;;;;;15.16;38.45;65372.72;5070775;28;20045;-76
2023/03/28 07:56:50;;;;;;;15.60;2.92;;;;;;;15.28;39.19;65386.28;5065669;28;20036;-77
2023/03/28 07:59:42;;;;;;;24.48;4.03;;;;;;;15.74;38.66;65436.59;5089400;28;20044;-77
2023/03/28 08:02:11;;;;;;;27.70;3.47;;;;;;;16.02;38.49;65468.28;5054974;28;20044;-76
2023/03/28 08:04:37;;;;;;;36.10;3.58;;;;;;;16.17;37.74;65484.09;5054174;28;20109;-77
2023/03/28 08:07:06;;;;;;;18.88;3.72;;;;;;;16.06;37.84;65472.22;5054353;28;20040;-76
2023/03/28 08:09:32;;;;;;;16.05;3.13;;;;;;;16.01;37.66;65467.13;5054550;28;20127;-78
2023/03/28 08:12:19;;;;;;;20.98;3.55;;;;;;;15.97;37.71;65462.59;5084479;28;20117;-77
2023/03/28 08:14:46;;;;;;;18.15;3.05;;;;;;;15.95;37.78;65460.34;5071187;28;20510;-79
2023/03/28 08:17:13;;;;;;;20.85;3.20;;;;;;;15.63;37.62;65424.72;5039460;28;20041;-77
2023/03/28 08:19:39;;;;;;;19.55;3.97;;;;;;;15.32;38.22;65389.66;5042218;28;20466;-79
2023/03/28 08:22:09;;;;;;;24.13;3.17;;;;;;;15.13;38.59;65369.31;5076220;28;20048;-76
2023/03/28 08:24:43;;;;;;;8.70;2.90;;;;;;;15.03;39.22;65358.00;5075260;28;20074;-77
2023/03/28 08:27:11;;;;;;;16.58;2.90;;;;;;;14.79;39.66;65332.03;5075303;28;20045;-76
2023/03/28 08:29:38;;;;;;;13.45;3.10;;;;;;;14.68;40.05;65319.03;5075044;28;20044;-76
2023/03/28 08:32:06;;;;;;;18.98;3.50;;;;;;;14.58;40.45;65308.31;5058637;28;20558;-76
2023/03/28 08:34:32;;;;;;;15.25;4.50;;;;;;;14.73;40.56;65324.69;5074898;28;20040;-78
2023/03/28 08:37:00;;;;;;;13.60;2.80;;;;;;;14.93;40.65;65347.28;5058755;28;20522;-77
2023/03/28 08:39:27;;;;;;;21.65;3.67;;;;;;;15.37;40.25;65395.31;5077006;28;20044;-78
2023/03/28 08:41:56;;;;;;;14.82;3.70;;;;;;;15.76;39.80;65439.44;5075090;28;20087;-76
2023/03/28 08:44:31;;;;;;;30.23;4.25;;;;;;;15.91;39.95;65455.84;5066519;28;20044;-76
2023/03/28 08:47:02;;;;;;;30.35;4.00;;;;;;;15.88;39.79;65452.44;5078117;28;20124;-75
2023/03/28 08:49:34;;;;;;;13.13;3.42;;;;;;;15.76;40.27;65438.88;5094743;28;20051;-76
2023/03/28 08:52:04;;;;;;;14.75;3.38;;;;;;;15.78;40.04;65441.69;5074686;28;20105;-75
2023/03/28 08:54:48;;;;;;;16.25;3.53;;;;;;;15.70;40.62;65432.63;5041757;28;20041;-76
2023/03/28 08:57:24;;;;;;;22.85;3.38;;;;;;;15.51;41.22;65411.16;5057660;28;20032;-76
2023/03/28 08:59:59;;;;;;;25.73;3.88;;;;;;;15.47;41.57;65406.63;5074458;28;20435;-77
2023/03/28 09:02:28;;;;;;;25.17;3.55;;;;;;;15.27;41.43;65385.16;5058146;28;20106;-76
2023/03/28 09:04:57;;;;;;;19.67;4.05;;;;;;;15.12;42.38;65368.19;5083096;28;20048;-76
2023/03/28 09:07:41;;;;;;;16.90;3.45;;;;;;;14.30;44.13;65277.78;5041079;28;20048;-76
2023/03/28 09:10:13;;;;;;;17.55;3.70;;;;;;;14.14;44.44;65259.72;5057341;28;20044;-77
2023/03/28 09:13:16;;;;;;;14.65;3.55;;;;;;;14.15;44.54;65260.84;5075195;28;20067;-75
2023/03/28 09:16:07;;;;;;;17.63;3.90;;;;;;;14.14;44.47;65259.16;5041089;28;20080;-76
2023/03/28 09:18:50;;;;;;;16.67;3.50;;;;;;;14.02;44.37;65246.16;5040995;28;20045;-77
2023/03/28 09:21:58;;;;;;;27.08;3.90;;;;;;;14.04;44.66;65248.44;5057215;28;20048;-77
2023/03/28 09:24:35;;;;;;;19.45;3.70;;;;;;;13.74;45.29;65215.69;5073833;28;20123;-77
2023/03/28 09:27:26;;;;;;;27.42;4.95;;;;;;;13.36;46.83;65173.94;5056936;28;20048;-77
2023/03/28 09:29:58;;;;;;;28.08;4.35;;;;;;;13.50;46.19;65188.59;5056600;28;20513;-78
2023/03/28 09:32:35;;;;;;;10.55;4.07;;;;;;;13.80;45.89;65221.91;5073617;28;20063;-76
2023/03/28 09:35:02;;;;;;;24.88;3.70;;;;;;;14.02;45.79;65246.16;5074970;28;20041;-79
2023/03/28 09:37:39;;;;;;;23.98;3.88;;;;;;;14.22;45.35;65268.75;5073669;28;20414;-78
2023/03/28 09:40:23;;;;;;;32.80;3.83;;;;;;;14.21;44.90;65267.63;5040832;28;20436;-77
2023/03/28 09:43:33;;;;;;;28.27;3.67;;;;;;;14.20;44.88;65266.50;5073205;28;20110;-77
2023/03/28 09:46:43;;;;;;;23.02;3.85;;;;;;;13.90;46.00;65232.63;5074407;28;20074;-75
2023/03/28 09:49:29;;;;;;;20.23;4.38;;;;;;;13.90;45.67;65232.63;5055970;28;20053;-76
2023/03/28 09:52:13;;;;;;;11.07;3.15;;;;;;;13.75;45.79;65216.81;5040983;28;20500;-77
2023/03/28 09:54:40;;;;;;;20.30;3.50;;;;;;;13.83;45.89;65225.84;5073680;28;20074;-79
2023/03/28 09:57:06;;;;;;;39.10;3.47;;;;;;;13.85;46.02;65227.56;5057025;28;20048;-80
2023/03/28 09:59:39;;;;;;;22.67;3.97;;;;;;;13.67;45.96;65207.78;5057873;28;20048;-79
2023/03/28 10:02:29;;;;;;;23.25;3.95;;;;;;;13.65;46.24;65205.53;5057800;28;20071;-79
2023/03/28 10:04:59;;;;;;;22.73;3.73;;;;;;;13.67;45.83;65207.78;5041112;28;20037;-78
2023/03/28 10:07:47;;;;;;;;;;;;;;;13.61;46.61;65201.00;5066271;28;20135;-80
2023/03/28 10:10:42;;;;;;;31.33;4.03;;;;;;;13.55;46.22;65194.81;5043545;28;19923;-80
2023/03/28 10:13:17;;;;;;;12.43;4.68;;;;;;;13.53;46.30;65192.00;5057430;28;20048;-80
2023/03/28 10:15:48;;;;;;;16.00;3.80;;;;;;;13.56;46.53;65195.38;5040767;28;20040;-81
2023/03/28 10:18:19;;;;;;;20.63;3.95;;;;;;;13.35;47.07;65172.81;5057155;28;20442;-80
2023/03/28 10:20:53;;;;;;;23.17;4.38;;;;;;;13.19;47.09;65154.72;5057516;28;20054;-81
2023/03/28 10:23:22;;;;;;;15.63;5.43;;;;;;;13.12;47.60;65147.41;5056213;28;20430;-80
2023/03/28 10:25:53;;;;;;;22.90;4.25;;;;;;;13.19;47.11;65154.16;5056736;28;20048;-79
2023/03/28 10:28:32;;;;;;;20.48;3.88;;;;;;;13.21;47.55;65156.44;5072307;28;20470;-78
2023/03/28 10:31:00;;;;;;;;;;;;;;;13.14;47.83;65149.09;5056339;28;20044;-78
2023/03/28 10:33:34;;;;;;;20.35;3.95;;;;;;;13.05;47.95;65138.94;5072190;28;19924;-78
2023/03/28 10:36:32;;;;;;;22.05;3.75;;;;;;;12.70;48.69;65100.03;5043100;28;20203;-78
2023/03/28 10:39:20;;;;;;;23.70;5.10;;;;;;;12.70;48.65;65100.59;5039392;28;20048;-79
2023/03/28 10:42:21;;;;;;;25.13;4.15;;;;;;;12.56;48.70;65085.38;5072636;28;20041;-79
2023/03/28 10:45:02;;;;;;;17.63;3.83;;;;;;;12.59;48.89;65088.75;5040375;28;20037;-79
2023/03/28 10:47:32;;;;;;;15.27;3.50;;;;;;;12.59;48.78;65088.19;5073843;28;20053;-78
2023/03/28 10:50:26;;;;;;;18.55;3.50;;;;;;;12.75;48.76;65106.25;5055921;28;20064;-79
2023/03/28 10:52:54;;;;;;;21.30;3.65;;;;;;;12.50;49.47;65078.06;5055966;28;20487;-79
2023/03/28 10:55:37;;;;;;;11.40;3.50;;;;;;;12.21;50.58;65046.47;5073296;28;20138;-80
2023/03/28 10:58:32;;;;;;;17.83;4.22;;;;;;;11.99;51.65;65022.25;5056077;28;20059;-80
2023/03/28 11:01:11;;;;;;;19.10;3.75;;;;;;;11.85;51.76;65006.50;5072756;28;20056;-80
2023/03/28 11:03:53;;;;;;;8.63;3.45;;;;;;;11.65;52.46;64984.47;5057226;28;20049;-78
2023/03/28 11:06:28;;;;;;;22.88;4.20;;;;;;;11.43;53.15;64960.84;5038532;28;20197;-80
2023/03/28 11:09:00;;;;;;;9.25;4.85;;;;;;;11.42;53.27;64959.16;5055598;28;20047;-80
2023/03/28 11:12:16;;;;;;;23.73;6.47;;;;;;;11.40;52.81;64957.47;5056682;28;20058;-79
2023/03/28 11:14:50;;;;;;;19.05;3.95;;;;;;;11.44;52.90;64961.41;5038397;28;20518;-80
2023/03/28 11:17:59;;;;;;;11.75;3.90;;;;;;;11.47;52.60;64964.78;5055458;28;20098;-79
2023/03/28 11:20:35;;;;;;;30.17;4.18;;;;;;;11.24;53.46;64939.44;5073339;28;20384;-78
2023/03/28 11:23:12;;;;;;;13.75;4.72;;;;;;;10.96;53.76;64907.91;5038790;28;20052;-79
2023/03/28 11:26:15;;;;;;;23.77;5.22;;;;;;;10.81;54.66;64892.16;5055410;28;20445;-78
2023/03/28 11:29:25;;;;;;;13.90;5.05;;;;;;;10.72;55.75;64881.44;5071316;28;20523;-78
2023/03/28 11:32:02;;;;;;;13.60;4.93;;;;;;;10.73;56.29;64883.16;5071683;28;20052;-79
2023/03/28 11:34:34;;;;;;;13.20;4.43;;;;;;;10.63;56.75;64871.91;5055335;28;20041;-79
2023/03/28 11:37:24;;;;;;;18.75;4.97;;;;;;;10.50;57.97;64857.84;5054809;28;20074;-81
2023/03/28 11:39:59;;;;;;;21.48;4.97;;;;;;;10.48;57.99;64855.00;5072827;28;20151;-79
2023/03/28 11:42:41;;;;;;;15.50;5.20;;;;;;;10.37;58.42;64843.75;5039883;28;20044;-79
2023/03/28 11:45:19;;;;;;;14.85;5.20;;;;;;;10.30;59.77;64835.88;5055780;28;20051;-78
2023/03/28 11:48:07;;;;;;;22.55;6.13;;;;;;;10.28;61.01;64833.09;5038849;28;20093;-78
2023/03/28 11:50:45;;;;;;;14.77;6.25;;;;;;;10.28;62.28;64833.09;5054973;28;20052;-82
2023/03/28 11:53:50;;;;;;;15.38;7.18;;;;;;;10.21;62.95;64825.75;5040510;28;20085;-80
2023/03/28 11:56:49;;;;;;;19.10;7.32;;;;;;;10.25;65.12;64829.69;5038779;28;20047;-79
2023/03/28 11:59:38;;;;;;;14.13;6.22;;;;;;;10.34;65.81;64840.41;5054594;28;20415;-79
2023/03/28 12:02:21;;;;;;;14.43;6.53;;;;;;;10.30;66.84;64835.88;5038773;28;20044;-79
2023/03/28 12:04:54;;;;;;;13.80;7.20;;;;;;;10.21;68.32;64825.75;5051661;28;20044;-79
2023/03/28 12:07:43;;;;;;;13.65;7.65;;;;;;;10.19;68.42;64823.47;5053740;28;20047;-79